Wernersville, Pennsylvania
Current Conditions -  °F | °C
As of 7:54 PM on Monday 26 Jan 2015 (Local Time) from KRDG Reporting Station
Overcast Overcast  
Wind Chill: 11°   Ceiling: 4000
Heat Index: 23°   Visibility: 10mi
Dew Point: 16°   Wind: 13mph
Humidity: 74%   Direction: 60°ENE
Pressure: 29.79"   Gusts: 17mph
Location:  40.33°N, 76.08°W
Report Text: KRDG 270054Z 06011G15KT 10SM FEW017 BKN040 OVC048 M05/M09 A2979 RMK AO2 SNE06 SLP097 P0000 T10501089
Loading
Personal Weather Stations






























Interactive Weather Map New forecast layout! Learn more

10-Day Weather Forecast

Advertisements
Track Severe Weather on mobile